Time;durP1;ratioP1;P1;durP2;ratioP2;P2;SDS_P1;SDS_P2;PMS_P1;PMS_P2;Temp;Humidity;BMP_temperature;BMP_pressure;BME280_temperature;BME280_humidity;BME280_pressure;Samples;Min_cycle;Max_cycle;Signal;HPM_P1;HPM_P2
2022/10/09 00:00:44;;;;;;;11.65;2.38;;;9.80;99.90;;;;;;4197264;28;20068;-86
2022/10/09 00:02:44;;;;;;;12.48;2.78;;;9.80;99.90;;;;;;4181372;28;20223;-86
2022/10/09 00:04:45;;;;;;;4.93;1.90;;;9.80;99.90;;;;;;4198558;28;20040;-86
2022/10/09 00:06:47;;;;;;;8.10;2.15;;;9.80;99.90;;;;;;4197538;28;20048;-86
2022/10/09 00:08:48;;;;;;;6.65;1.85;;;9.80;99.90;;;;;;4199421;28;20078;-87
2022/10/09 00:10:49;;;;;;;21.88;2.38;;;9.20;99.90;;;;;;4197240;28;20060;-86
2022/10/09 00:12:51;;;;;;;7.47;2.03;;;10.00;99.90;;;;;;4180849;28;20118;-86
2022/10/09 00:14:52;;;;;;;6.20;2.03;;;9.00;99.90;;;;;;4181975;28;20048;-87
2022/10/09 00:16:53;;;;;;;7.70;1.90;;;9.80;99.90;;;;;;4180400;28;20535;-86
2022/10/09 00:18:54;;;;;;;9.60;2.33;;;9.80;99.90;;;;;;4180720;28;20053;-86
2022/10/09 00:20:55;;;;;;;5.20;1.95;;;9.80;99.90;;;;;;4198483;28;20040;-87
2022/10/09 00:22:56;;;;;;;8.52;1.75;;;9.80;99.90;;;;;;4180864;28;20160;-86
2022/10/09 00:24:57;;;;;;;10.60;2.50;;;9.70;99.90;;;;;;4164209;28;20603;-85
2022/10/09 00:26:58;;;;;;;7.53;2.45;;;9.70;99.90;;;;;;4198335;28;20504;-86
2022/10/09 00:28:58;;;;;;;14.93;2.63;;;9.70;99.90;;;;;;4199143;28;20040;-86
2022/10/09 00:31:03;;;;;;;10.05;2.72;;;9.70;99.90;;;;;;4164161;28;20049;-85
2022/10/09 00:33:04;;;;;;;8.88;2.40;;;9.70;99.90;;;;;;4197874;28;20082;-86
2022/10/09 00:35:05;;;;;;;12.10;2.60;;;9.70;99.90;;;;;;4179765;28;20049;-86
2022/10/09 00:37:06;;;;;;;6.75;2.00;;;9.60;99.90;;;;;;4180474;28;20531;-85
2022/10/09 00:39:10;;;;;;;4.53;2.10;;;9.60;99.90;;;;;;4163321;28;20053;-86
2022/10/09 00:41:20;;;;;;;7.90;2.05;;;9.60;99.90;;;;;;4197973;28;20381;-86
2022/10/09 00:43:55;;;;;;;4.90;2.08;;;9.60;99.90;;;;;;4197795;28;20044;-86
2022/10/09 00:45:57;;;;;;;6.80;1.63;;;9.60;99.90;;;;;;4164456;28;20053;-86
2022/10/09 00:48:01;;;;;;;8.70;2.08;;;9.60;99.90;;;;;;4198764;28;20048;-86
2022/10/09 00:50:21;;;;;;;6.55;1.98;;;9.60;99.90;;;;;;4186000;28;20076;-86
2022/10/09 00:52:25;;;;;;;7.15;2.00;;;9.60;99.90;;;;;;4170084;28;20045;-85
2022/10/09 00:54:31;;;;;;;9.27;1.77;;;9.60;99.90;;;;;;4197932;28;20041;-86
2022/10/09 00:56:33;;;;;;;10.07;1.95;;;9.60;99.90;;;;;;4183642;28;20092;-86
2022/10/09 00:58:34;;;;;;;7.43;1.60;;;9.60;99.90;;;;;;4203834;28;20076;-86
2022/10/09 01:00:35;;;;;;;4.97;2.00;;;9.60;99.90;;;;;;4182828;28;20106;-86
2022/10/09 01:02:36;;;;;;;10.55;2.03;;;9.50;99.90;;;;;;4198700;28;20060;-86
2022/10/09 01:04:37;;;;;;;10.55;2.00;;;9.60;99.90;;;;;;4199639;28;20060;-86
2022/10/09 01:07:02;;;;;;;13.55;1.92;;;9.60;99.90;;;;;;4200160;28;20052;-86
2022/10/09 01:09:26;;;;;;;8.52;1.48;;;9.60;99.90;;;;;;4183056;28;20060;-87
2022/10/09 01:11:38;;;;;;;5.07;1.58;;;9.60;99.90;;;;;;4172752;28;20056;-86
2022/10/09 01:13:46;;;;;;;3.25;1.42;;;9.60;99.90;;;;;;4182283;28;20119;-86
2022/10/09 01:16:39;;;;;;;7.15;1.67;;;9.60;99.90;;;;;;4182555;28;20178;-87
2022/10/09 01:18:51;;;;;;;5.75;1.75;;;9.50;99.90;;;;;;4177956;28;20052;-86
2022/10/09 01:20:55;;;;;;;5.97;1.23;;;9.50;99.90;;;;;;4183283;28;20060;-87
2022/10/09 01:23:11;;;;;;;5.82;1.70;;;9.50;99.90;;;;;;4183237;28;20041;-86
2022/10/09 01:25:25;;;;;;;5.70;1.60;;;9.50;99.90;;;;;;4200205;28;20491;-87
2022/10/09 01:27:29;;;;;;;6.85;1.60;;;9.50;99.90;;;;;;4206824;28;20097;-86
2022/10/09 01:29:40;;;;;;;5.57;1.70;;;9.40;99.90;;;;;;4211261;28;20078;-86
2022/10/09 01:31:45;;;;;;;5.50;1.60;;;9.50;99.90;;;;;;4215002;28;20045;-87
2022/10/09 01:33:47;;;;;;;8.45;1.25;;;9.40;99.90;;;;;;4197346;28;20113;-85
2022/10/09 01:35:48;;;;;;;5.45;1.45;;;9.40;99.90;;;;;;4179366;28;20045;-85
2022/10/09 01:37:52;;;;;;;7.40;2.15;;;9.40;99.90;;;;;;4174647;28;20060;-86
2022/10/09 01:39:53;;;;;;;6.32;2.38;;;9.40;99.90;;;;;;4168222;28;20092;-86
2022/10/09 01:41:55;;;;;;;10.70;1.95;;;9.30;99.90;;;;;;4201412;28;20055;-87
2022/10/09 01:43:55;;;;;;;9.02;1.88;;;9.30;99.90;;;;;;4167990;28;20045;-86
2022/10/09 01:46:19;;;;;;;10.65;1.67;;;9.30;99.90;;;;;;4201570;28;20104;-86
2022/10/09 01:48:23;;;;;;;7.57;1.48;;;9.30;99.90;;;;;;4184211;28;20493;-87
2022/10/09 01:50:30;;;;;;;7.40;2.10;;;9.30;99.90;;;;;;4200438;28;20043;-86
2022/10/09 01:52:39;;;;;;;5.95;1.23;;;9.20;99.90;;;;;;4183818;28;20548;-86
2022/10/09 01:54:46;;;;;;;10.25;1.75;;;9.20;99.90;;;;;;4182901;28;20098;-86
2022/10/09 01:56:51;;;;;;;7.22;1.77;;;9.20;99.90;;;;;;4183520;28;20051;-86
2022/10/09 01:58:59;;;;;;;6.75;1.42;;;9.20;99.90;;;;;;4200597;28;20044;-86
2022/10/09 02:01:02;;;;;;;8.18;1.60;;;9.20;99.90;;;;;;4166268;28;20053;-86
2022/10/09 02:03:10;;;;;;;5.88;1.50;;;9.10;99.90;;;;;;4183208;28;20053;-86
2022/10/09 02:05:18;;;;;;;8.50;1.45;;;9.10;99.90;;;;;;4201155;28;20049;-86
2022/10/09 02:07:21;;;;;;;3.65;1.42;;;9.10;99.90;;;;;;4166683;28;20045;-87
2022/10/09 02:09:24;;;;;;;7.25;2.72;;;9.10;99.90;;;;;;4200056;28;20044;-86
2022/10/09 02:11:28;;;;;;;8.18;1.63;;;8.60;99.90;;;;;;4200209;28;20505;-85
2022/10/09 02:13:33;;;;;;;6.50;1.55;;;8.30;99.90;;;;;;4166736;28;20058;-85
2022/10/09 02:15:42;;;;;;;12.48;2.40;;;9.00;99.90;;;;;;4182871;28;20044;-85
2022/10/09 02:17:46;;;;;;;6.30;2.17;;;9.00;99.90;;;;;;4201212;28;20161;-86
2022/10/09 02:19:51;;;;;;;4.35;1.63;;;9.00;99.90;;;;;;4200702;28;20041;-87
2022/10/09 02:21:58;;;;;;;2.78;1.40;;;9.00;99.90;;;;;;4183014;28;20420;-85
2022/10/09 02:24:01;;;;;;;11.82;2.15;;;9.00;99.90;;;;;;4200474;28;20044;-86
2022/10/09 02:26:01;;;;;;;7.75;1.60;;;8.90;99.90;;;;;;4182378;28;20432;-86
2022/10/09 02:28:04;;;;;;;13.05;2.00;;;9.00;99.90;;;;;;4200102;28;20120;-86
2022/10/09 02:30:07;;;;;;;6.22;1.73;;;8.90;99.90;;;;;;4200603;28;20393;-86
2022/10/09 02:32:09;;;;;;;7.28;1.70;;;8.90;99.90;;;;;;4166143;28;20049;-86
2022/10/09 02:34:14;;;;;;;3.92;1.40;;;8.80;99.90;;;;;;4200285;28;20155;-86
2022/10/09 02:36:15;;;;;;;4.47;1.20;;;8.90;99.90;;;;;;4182723;28;20074;-86
2022/10/09 02:38:16;;;;;;;6.68;1.98;;;8.30;99.90;;;;;;4182039;28;20060;-85
2022/10/09 02:40:18;;;;;;;6.38;1.77;;;8.80;99.90;;;;;;4200206;28;20040;-86
2022/10/09 02:42:19;;;;;;;10.63;2.35;;;8.80;99.90;;;;;;4166015;28;20041;-86
2022/10/09 02:44:20;;;;;;;9.60;1.95;;;8.80;99.90;;;;;;4199777;28;20044;-86
2022/10/09 02:46:21;;;;;;;8.02;1.35;;;8.80;99.90;;;;;;4182145;28;20051;-85
2022/10/09 02:48:22;;;;;;;3.90;1.75;;;8.80;99.90;;;;;;4165662;28;20505;-86
2022/10/09 02:50:23;;;;;;;7.07;1.83;;;8.70;99.90;;;;;;4199530;28;20047;-85
2022/10/09 02:52:24;;;;;;;7.20;1.77;;;8.70;99.90;;;;;;4199801;28;20512;-86
2022/10/09 02:54:24;;;;;;;7.32;2.03;;;8.70;99.90;;;;;;4200345;28;20471;-85
2022/10/09 02:56:27;;;;;;;4.53;1.67;;;8.70;99.90;;;;;;4199396;28;20029;-85
2022/10/09 02:58:32;;;;;;;5.30;1.75;;;8.70;99.90;;;;;;4199502;28;20068;-85
2022/10/09 03:00:32;;;;;;;8.98;2.60;;;8.70;99.90;;;;;;4181938;28;20057;-85
2022/10/09 03:02:33;;;;;;;8.32;2.28;;;8.60;99.90;;;;;;4180936;28;20445;-86
2022/10/09 03:04:34;;;;;;;9.55;1.90;;;8.70;99.90;;;;;;4181509;28;20056;-86
2022/10/09 03:06:34;;;;;;;10.38;2.05;;;8.60;99.90;;;;;;4181229;28;20084;-86
2022/10/09 03:08:37;;;;;;;11.27;1.67;;;8.60;99.90;;;;;;4181600;28;20053;-86
2022/10/09 03:10:39;;;;;;;7.60;1.83;;;8.60;99.90;;;;;;4198933;28;20831;-85
2022/10/09 03:12:40;;;;;;;3.92;1.90;;;8.60;99.90;;;;;;4165694;28;20050;-87
2022/10/09 03:14:41;;;;;;;8.20;1.65;;;8.60;99.90;;;;;;4199562;28;20054;-87
2022/10/09 03:16:41;;;;;;;7.30;2.33;;;8.60;99.90;;;;;;4165835;28;20386;-86
2022/10/09 03:18:43;;;;;;;6.32;1.73;;;8.60;99.90;;;;;;4151453;28;20115;-86
2022/10/09 03:20:44;;;;;;;4.97;1.63;;;8.60;99.90;;;;;;4183124;28;20048;-87
2022/10/09 03:22:45;;;;;;;5.70;1.60;;;8.50;99.90;;;;;;4148086;28;20097;-86
2022/10/09 03:24:45;;;;;;;7.95;1.90;;;8.60;99.90;;;;;;4182806;28;20091;-86
2022/10/09 03:26:46;;;;;;;7.78;1.52;;;8.50;99.90;;;;;;4165516;28;20050;-87
2022/10/09 03:28:49;;;;;;;8.27;1.60;;;8.50;99.90;;;;;;4165306;28;20041;-86
2022/10/09 03:30:50;;;;;;;9.50;2.15;;;8.50;99.90;;;;;;4162071;28;20061;-86
2022/10/09 03:32:50;;;;;;;6.22;2.05;;;8.50;99.90;;;;;;4165093;28;20053;-86
2022/10/09 03:34:51;;;;;;;9.32;1.92;;;8.40;99.90;;;;;;4182229;28;20084;-86
2022/10/09 03:36:52;;;;;;;7.13;1.63;;;8.40;99.90;;;;;;4199347;28;20405;-86
2022/10/09 03:38:53;;;;;;;5.63;1.85;;;8.40;99.90;;;;;;4181891;28;20117;-86
2022/10/09 03:40:54;;;;;;;6.43;1.92;;;8.40;99.90;;;;;;4199720;28;20044;-87
2022/10/09 03:42:55;;;;;;;20.75;2.90;;;8.30;99.90;;;;;;4199723;28;20093;-87
2022/10/09 03:44:59;;;;;;;4.97;1.67;;;8.30;99.90;;;;;;4181911;28;20084;-86
2022/10/09 03:47:01;;;;;;;9.95;1.90;;;8.30;99.90;;;;;;4199561;28;20045;-87
2022/10/09 03:49:03;;;;;;;4.03;1.58;;;8.30;99.90;;;;;;4164948;28;20127;-87
2022/10/09 03:51:04;;;;;;;5.93;1.98;;;8.30;99.90;;;;;;4181348;28;20052;-87
2022/10/09 03:53:05;;;;;;;10.05;2.28;;;8.20;99.90;;;;;;4181337;28;20052;-86
2022/10/09 03:55:07;;;;;;;6.38;1.95;;;8.20;99.90;;;;;;4199463;28;20044;-88
2022/10/09 03:57:08;;;;;;;9.77;2.10;;;8.20;99.90;;;;;;4199197;28;20120;-87
2022/10/09 03:59:09;;;;;;;6.85;1.80;;;8.20;99.90;;;;;;4198597;28;20101;-87
2022/10/09 04:01:09;;;;;;;9.88;2.20;;;8.20;99.90;;;;;;4165332;28;20087;-87
2022/10/09 04:03:11;;;;;;;10.20;2.15;;;8.20;99.90;;;;;;4181038;28;20057;-86
2022/10/09 04:05:13;;;;;;;9.55;2.22;;;8.20;99.90;;;;;;4181269;28;20585;-86
2022/10/09 04:07:15;;;;;;;5.80;2.10;;;8.00;99.90;;;;;;4198883;28;20433;-87
2022/10/09 04:09:16;;;;;;;8.25;2.72;;;8.20;99.90;;;;;;4165588;28;20046;-87
2022/10/09 04:11:16;;;;;;;8.00;2.13;;;8.10;99.90;;;;;;4181458;28;20099;-86
2022/10/09 04:13:18;;;;;;;4.22;1.92;;;8.10;99.90;;;;;;4165339;28;20084;-86
2022/10/09 04:15:19;;;;;;;6.85;2.15;;;8.10;99.90;;;;;;4181077;28;20045;-87
2022/10/09 04:17:20;;;;;;;10.02;2.90;;;8.10;99.90;;;;;;4198865;28;20055;-86
2022/10/09 04:19:21;;;;;;;8.35;2.30;;;8.10;99.90;;;;;;4198846;28;20094;-87
2022/10/09 04:21:23;;;;;;;7.18;2.10;;;7.20;99.90;;;;;;4197599;28;20044;-87
2022/10/09 04:23:25;;;;;;;10.38;2.42;;;8.10;99.90;;;;;;4198557;28;20041;-86
2022/10/09 04:25:26;;;;;;;11.65;2.30;;;8.10;99.90;;;;;;4198232;28;20064;-87
2022/10/09 04:27:27;;;;;;;7.53;2.38;;;8.10;99.90;;;;;;4193499;28;20033;-87
2022/10/09 04:29:28;;;;;;;9.52;2.65;;;8.10;99.90;;;;;;4164949;28;20087;-87
2022/10/09 04:31:32;;;;;;;14.52;3.22;;;7.10;99.90;;;;;;4148654;28;20054;-86
2022/10/09 04:33:36;;;;;;;11.43;2.45;;;8.10;99.90;;;;;;4147875;28;20078;-86
2022/10/09 04:35:44;;;;;;;8.30;2.78;;;8.10;99.90;;;;;;4164693;28;20103;-86
2022/10/09 04:37:44;;;;;;;10.25;2.58;;;8.00;99.90;;;;;;4182218;28;20037;-87
2022/10/09 04:39:46;;;;;;;8.50;2.88;;;8.00;99.90;;;;;;4186390;28;20045;-87
2022/10/09 04:41:48;;;;;;;5.05;2.50;;;8.00;99.90;;;;;;4182411;28;20049;-87
2022/10/09 04:43:54;;;;;;;7.20;2.90;;;8.00;99.90;;;;;;4181692;28;20041;-86
2022/10/09 04:45:56;;;;;;;6.35;2.53;;;8.00;99.90;;;;;;4181739;28;20409;-86
2022/10/09 04:47:56;;;;;;;6.68;2.55;;;8.00;99.90;;;;;;4164722;28;20045;-86
2022/10/09 04:49:57;;;;;;;7.55;2.75;;;8.00;99.90;;;;;;4181649;28;20059;-86
2022/10/09 04:51:58;;;;;;;10.73;3.30;;;8.00;99.90;;;;;;4147997;28;20050;-87
2022/10/09 04:54:01;;;;;;;12.88;3.75;;;8.00;99.90;;;;;;4164662;28;20191;-86
2022/10/09 04:56:04;;;;;;;12.23;3.20;;;8.00;99.90;;;;;;4164887;28;20109;-89
2022/10/09 04:58:05;;;;;;;11.93;4.20;;;8.00;99.90;;;;;;4182012;28;20049;-86
2022/10/09 05:00:06;;;;;;;8.13;4.05;;;8.00;99.90;;;;;;4165039;28;20049;-87
2022/10/09 05:02:07;;;;;;;9.68;3.08;;;8.00;99.90;;;;;;4147280;28;20096;-87
2022/10/09 05:04:11;;;;;;;8.30;3.33;;;8.00;99.90;;;;;;4166883;28;20049;-87
2022/10/09 05:06:12;;;;;;;10.63;3.03;;;8.00;99.90;;;;;;4188866;28;20051;-87
2022/10/09 05:08:14;;;;;;;8.18;3.42;;;8.00;99.90;;;;;;4182901;28;20076;-87
2022/10/09 05:10:15;;;;;;;11.75;3.35;;;8.00;99.90;;;;;;4202125;28;20037;-87
2022/10/09 05:12:16;;;;;;;12.30;3.20;;;7.10;99.90;;;;;;4202199;28;20459;-87
2022/10/09 05:14:17;;;;;;;10.70;2.83;;;7.90;99.90;;;;;;4184454;28;20655;-87
2022/10/09 05:16:21;;;;;;;6.05;3.33;;;7.90;99.90;;;;;;4200771;28;20404;-87
2022/10/09 05:18:22;;;;;;;11.35;3.35;;;7.90;99.90;;;;;;4201593;28;20048;-87
2022/10/09 05:20:22;;;;;;;8.98;4.32;;;7.90;99.90;;;;;;4200227;28;20560;-86
2022/10/09 05:22:23;;;;;;;9.93;3.45;;;7.80;99.90;;;;;;4200137;28;20048;-86
2022/10/09 05:24:24;;;;;;;13.50;3.22;;;7.80;99.90;;;;;;4201459;28;20485;-87
2022/10/09 05:26:26;;;;;;;8.27;3.20;;;7.80;99.90;;;;;;4200206;28;20131;-87
2022/10/09 05:28:28;;;;;;;12.70;3.65;;;7.80;99.90;;;;;;4199855;28;20521;-86
2022/10/09 05:30:30;;;;;;;7.03;3.45;;;7.70;99.90;;;;;;4200871;28;20036;-86
2022/10/09 05:32:31;;;;;;;7.63;3.70;;;7.70;99.90;;;;;;4200367;28;20389;-86
2022/10/09 05:34:34;;;;;;;8.05;3.65;;;7.60;99.90;;;;;;4201065;28;20051;-86
2022/10/09 05:36:35;;;;;;;11.35;3.40;;;7.60;99.90;;;;;;4178807;28;20049;-86
2022/10/09 05:38:36;;;;;;;10.25;3.67;;;7.60;99.90;;;;;;4200136;28;20032;-86
2022/10/09 05:40:37;;;;;;;6.03;3.35;;;7.60;99.90;;;;;;4201104;28;20044;-86
2022/10/09 05:42:39;;;;;;;11.05;3.13;;;7.60;99.90;;;;;;4201172;28;20044;-86
2022/10/09 05:44:39;;;;;;;12.63;4.60;;;7.60;99.90;;;;;;4201029;28;20056;-87
2022/10/09 05:46:40;;;;;;;12.88;3.60;;;7.60;99.90;;;;;;4201278;28;20036;-86
2022/10/09 05:48:43;;;;;;;12.40;4.15;;;7.60;99.90;;;;;;4201487;28;20072;-86
2022/10/09 05:50:45;;;;;;;10.25;3.90;;;7.50;99.90;;;;;;4202588;28;20051;-86
2022/10/09 05:52:46;;;;;;;7.00;3.80;;;7.50;99.90;;;;;;4169655;28;20199;-86
2022/10/09 05:54:49;;;;;;;11.88;4.10;;;7.50;99.90;;;;;;4184302;28;20528;-87
2022/10/09 05:56:50;;;;;;;12.90;3.88;;;7.50;99.90;;;;;;4205239;28;20105;-86
2022/10/09 05:58:55;;;;;;;10.77;3.67;;;7.50;99.90;;;;;;4204151;28;20045;-86
2022/10/09 06:00:59;;;;;;;9.48;3.50;;;7.50;99.90;;;;;;4186365;28;20096;-86
2022/10/09 06:03:00;;;;;;;14.50;3.72;;;7.50;99.90;;;;;;4204893;28;20116;-86
2022/10/09 06:05:00;;;;;;;12.38;4.45;;;7.50;99.90;;;;;;4205434;28;20040;-87
2022/10/09 06:07:01;;;;;;;9.40;4.20;;;7.50;99.90;;;;;;4185936;28;20073;-87
2022/10/09 06:09:03;;;;;;;14.73;4.47;;;7.60;99.90;;;;;;4200808;28;20044;-87
2022/10/09 06:11:18;;;;;;;8.27;3.80;;;7.60;99.90;;;;;;4200999;28;20159;-86
2022/10/09 06:13:18;;;;;;;8.35;3.97;;;7.50;99.90;;;;;;4201941;28;20074;-86
2022/10/09 06:15:19;;;;;;;14.32;3.97;;;7.50;99.90;;;;;;4165244;28;20077;-86
2022/10/09 06:17:20;;;;;;;9.93;4.15;;;7.60;99.90;;;;;;4183527;28;20110;-86
2022/10/09 06:19:21;;;;;;;10.02;5.03;;;7.60;99.90;;;;;;4182639;28;20055;-85
2022/10/09 06:21:24;;;;;;;8.68;4.25;;;7.60;99.90;;;;;;4200771;28;20051;-85
2022/10/09 06:23:25;;;;;;;12.95;4.03;;;7.60;99.90;;;;;;4182782;28;20045;-84
2022/10/09 06:25:26;;;;;;;8.82;4.20;;;7.50;99.90;;;;;;4182423;28;20068;-84
2022/10/09 06:27:27;;;;;;;9.00;3.78;;;7.60;99.90;;;;;;4166488;28;20049;-85
2022/10/09 06:29:29;;;;;;;9.65;4.03;;;7.60;99.90;;;;;;4166881;28;20135;-85
2022/10/09 06:31:32;;;;;;;8.05;4.13;;;7.60;99.90;;;;;;4195447;28;20052;-85
2022/10/09 06:33:35;;;;;;;11.27;4.22;;;7.60;99.90;;;;;;4166889;28;20057;-85
2022/10/09 06:35:36;;;;;;;11.60;4.60;;;7.60;99.90;;;;;;4184418;28;20048;-85
2022/10/09 06:37:38;;;;;;;8.20;3.58;;;7.60;99.90;;;;;;4167111;28;20406;-86
2022/10/09 06:39:39;;;;;;;10.18;3.38;;;7.60;99.90;;;;;;4166570;28;20064;-85
2022/10/09 06:41:40;;;;;;;14.52;5.00;;;7.70;99.90;;;;;;4183384;28;20513;-86
2022/10/09 06:43:42;;;;;;;10.57;4.03;;;7.70;99.90;;;;;;4149734;28;20054;-85
2022/10/09 06:45:42;;;;;;;8.75;4.22;;;7.70;99.90;;;;;;4183065;28;20052;-86
2022/10/09 06:47:44;;;;;;;8.07;3.80;;;7.70;99.90;;;;;;4165618;28;20448;-87
2022/10/09 06:49:46;;;;;;;8.35;4.18;;;7.70;99.90;;;;;;4172202;28;20304;-85
2022/10/09 06:51:47;;;;;;;10.07;3.83;;;7.80;99.90;;;;;;4199279;28;20123;-86
2022/10/09 06:53:52;;;;;;;10.32;4.47;;;7.70;99.90;;;;;;4184280;28;20425;-85
2022/10/09 06:55:54;;;;;;;12.50;4.15;;;7.90;99.90;;;;;;4172873;28;20053;-86
2022/10/09 06:57:55;;;;;;;9.80;3.58;;;8.00;99.90;;;;;;4181525;28;20128;-85
2022/10/09 06:59:56;;;;;;;11.30;4.43;;;8.00;99.90;;;;;;4199516;28;20024;-85
2022/10/09 07:02:00;;;;;;;8.35;4.43;;;8.00;99.90;;;;;;4165057;28;20489;-86
2022/10/09 07:04:08;;;;;;;10.77;4.88;;;8.00;99.90;;;;;;4199496;28;20123;-85
2022/10/09 07:06:10;;;;;;;14.60;3.95;;;8.00;99.90;;;;;;4199265;28;20044;-86
2022/10/09 07:08:10;;;;;;;6.25;3.63;;;8.00;99.90;;;;;;4180107;28;20072;-87
2022/10/09 07:10:12;;;;;;;10.75;3.80;;;8.10;99.90;;;;;;4200627;28;20040;-87
2022/10/09 07:12:12;;;;;;;6.68;3.55;;;8.10;99.90;;;;;;4166609;28;20092;-87
2022/10/09 07:14:17;;;;;;;8.95;3.60;;;8.10;99.90;;;;;;4180657;28;20108;-87
2022/10/09 07:16:25;;;;;;;12.85;4.53;;;8.20;99.90;;;;;;4182474;28;20044;-87
2022/10/09 07:18:26;;;;;;;10.00;3.55;;;8.30;99.90;;;;;;4166311;28;20518;-87
2022/10/09 07:20:31;;;;;;;8.98;4.25;;;8.30;99.90;;;;;;4200345;28;20127;-86
2022/10/09 07:22:32;;;;;;;6.38;3.33;;;8.30;99.90;;;;;;4166992;28;20049;-86
2022/10/09 07:24:33;;;;;;;16.25;4.25;;;8.30;99.90;;;;;;4166359;28;20050;-86
2022/10/09 07:26:37;;;;;;;10.85;3.95;;;8.30;99.90;;;;;;4199104;28;20503;-86
2022/10/09 07:28:39;;;;;;;8.85;4.18;;;8.40;99.90;;;;;;4200292;28;20083;-87
2022/10/09 07:30:40;;;;;;;9.27;4.78;;;8.40;99.90;;;;;;4199069;28;20481;-85
2022/10/09 07:32:40;;;;;;;9.60;4.55;;;8.50;99.90;;;;;;4200038;28;20046;-86
2022/10/09 07:34:42;;;;;;;11.02;5.20;;;8.50;99.90;;;;;;4182078;28;20084;-85
2022/10/09 07:36:45;;;;;;;15.00;5.00;;;8.50;99.90;;;;;;4197516;28;20552;-85
2022/10/09 07:38:50;;;;;;;17.10;5.45;;;8.60;99.90;;;;;;4165319;28;20045;-86
2022/10/09 07:40:58;;;;;;;10.20;5.53;;;8.60;99.90;;;;;;4169265;28;20055;-87
2022/10/09 07:42:58;;;;;;;13.48;5.45;;;8.70;99.90;;;;;;4181686;28;20060;-87
2022/10/09 07:44:59;;;;;;;14.68;6.68;;;8.80;99.90;;;;;;4199355;28;20052;-86
2022/10/09 07:47:00;;;;;;;19.60;6.40;;;8.90;99.90;;;;;;4171509;28;20046;-86
2022/10/09 07:49:02;;;;;;;15.35;5.97;;;9.00;99.90;;;;;;4199781;28;20047;-87
2022/10/09 07:51:21;;;;;;;20.13;6.43;;;9.10;99.90;;;;;;4164507;28;20050;-87
2022/10/09 07:53:22;;;;;;;11.02;5.60;;;8.50;99.90;;;;;;4178531;28;20045;-87
2022/10/09 07:55:26;;;;;;;12.15;6.45;;;9.20;99.90;;;;;;4200362;28;20934;-87
2022/10/09 07:57:29;;;;;;;11.77;5.72;;;9.30;99.90;;;;;;4199270;28;20074;-87
2022/10/09 07:59:30;;;;;;;14.40;5.88;;;9.50;99.90;;;;;;4181942;28;20543;-87
2022/10/09 08:01:32;;;;;;;12.50;6.07;;;10.00;99.90;;;;;;4181178;28;20120;-87
2022/10/09 08:03:34;;;;;;;10.70;4.43;;;10.90;99.90;;;;;;4198059;28;20844;-87
2022/10/09 08:05:35;;;;;;;9.68;4.13;;;11.70;99.90;;;;;;4198006;28;20500;-88
2022/10/09 08:07:36;;;;;;;13.45;5.03;;;12.40;99.90;;;;;;4165351;28;20045;-87
2022/10/09 08:09:38;;;;;;;12.07;5.22;;;13.20;99.90;;;;;;4181495;28;20053;-87
2022/10/09 08:11:39;;;;;;;10.60;3.72;;;13.90;99.90;;;;;;4180829;28;20418;-87
2022/10/09 08:13:41;;;;;;;6.25;3.33;;;14.80;99.90;;;;;;4165474;28;20417;-87
2022/10/09 08:15:43;;;;;;;7.25;3.58;;;15.40;99.70;;;;;;4182427;28;20849;-87
2022/10/09 08:17:44;;;;;;;7.47;3.10;;;15.80;98.90;;;;;;4182273;28;20497;-87
2022/10/09 08:19:45;;;;;;;9.48;3.22;;;16.20;98.60;;;;;;4181767;28;20139;-87
2022/10/09 08:21:46;;;;;;;5.50;3.13;;;16.50;97.90;;;;;;4181996;28;20041;-87
2022/10/09 08:23:51;;;;;;;6.45;2.95;;;16.90;97.60;;;;;;4181588;28;20104;-88
2022/10/09 08:25:52;;;;;;;5.57;2.53;;;17.40;96.80;;;;;;4164845;28;20053;-87
2022/10/09 08:27:53;;;;;;;5.63;2.63;;;17.60;96.50;;;;;;4182818;28;20490;-88
2022/10/09 08:29:54;;;;;;;8.60;2.53;;;17.80;96.00;;;;;;4182407;28;20501;-87
2022/10/09 08:31:55;;;;;;;4.82;1.92;;;18.00;95.70;;;;;;4182190;28;20051;-88
2022/10/09 08:33:58;;;;;;;5.22;1.73;;;17.80;95.90;;;;;;4182460;28;20039;-88
2022/10/09 08:36:06;;;;;;;8.40;2.38;;;17.90;95.20;;;;;;4181134;28;20184;-88
2022/10/09 08:38:09;;;;;;;5.50;1.60;;;18.40;95.00;;;;;;4182440;28;20040;-87
2022/10/09 08:40:19;;;;;;;8.18;2.30;;;18.30;94.40;;;;;;4182582;28;20298;-87
2022/10/09 08:42:35;;;;;;;5.70;1.63;;;18.50;93.70;;;;;;4165568;28;20067;-88
2022/10/09 08:44:47;;;;;;;4.07;1.40;;;18.70;92.60;;;;;;4166155;28;20096;-88
2022/10/09 08:46:56;;;;;;;7.13;2.05;;;19.20;93.10;;;;;;4170741;28;20033;-87
2022/10/09 08:48:59;;;;;;;2.88;1.23;;;19.00;92.70;;;;;;4166204;28;20046;-87
2022/10/09 08:51:01;;;;;;;2.33;1.30;;;19.20;92.30;;;;;;4165431;28;20049;-88
2022/10/09 08:53:20;;;;;;;4.60;1.35;;;19.40;91.50;;;;;;4177404;28;20045;-87
2022/10/09 08:55:40;;;;;;;5.30;1.30;;;19.80;91.00;;;;;;4181799;28;20041;-88
2022/10/09 08:57:53;;;;;;;6.35;1.45;;;20.20;90.90;;;;;;4180661;28;20517;-88
2022/10/09 08:59:56;;;;;;;5.63;1.50;;;20.80;88.10;;;;;;4182159;28;20069;-89
2022/10/09 09:02:23;;;;;;;3.08;1.10;;;20.80;89.10;;;;;;4185870;28;20508;-88
2022/10/09 09:04:37;;;;;;;5.88;1.02;;;21.20;84.90;;;;;;4173971;28;20040;-87
2022/10/09 09:06:59;;;;;;;4.47;1.17;;;21.00;85.70;;;;;;4165419;28;20045;-88
2022/10/09 09:09:19;;;;;;;5.88;1.65;;;21.00;79.90;;;;;;4199523;28;20045;-88
2022/10/09 09:11:53;;;;;;;4.10;1.17;;;20.90;84.40;;;;;;4181164;28;20111;-87
2022/10/09 09:13:57;;;;;;;4.72;1.10;;;21.00;79.30;;;;;;4182561;28;20056;-88
2022/10/09 09:16:05;;;;;;;15.80;1.83;;;20.80;83.50;;;;;;4148427;28;20054;-88
2022/10/09 09:18:30;;;;;;;3.65;1.00;;;20.40;82.50;;;;;;4148183;28;20049;-88
2022/10/09 09:20:46;;;;;;;5.13;1.05;;;20.40;81.40;;;;;;4148578;28;20425;-87
2022/10/09 09:22:48;;;;;;;3.88;1.10;;;20.60;83.90;;;;;;4182044;28;20058;-88
2022/10/09 09:24:54;;;;;;;3.78;1.30;;;20.80;82.60;;;;;;4198540;28;20049;-88
2022/10/09 09:27:00;;;;;;;3.35;0.95;;;20.90;80.90;;;;;;4163873;28;20045;-88
2022/10/09 09:29:03;;;;;;;7.07;1.88;;;20.60;81.60;;;;;;4198528;28;20087;-88
2022/10/09 09:31:14;;;;;;;6.25;1.25;;;20.70;82.60;;;;;;4198542;28;20518;-88
2022/10/09 09:33:48;;;;;;;2.40;0.90;;;20.90;80.60;;;;;;4181076;28;20146;-88
2022/10/09 09:36:25;;;;;;;4.43;1.10;;;21.10;81.70;;;;;;4149171;28;20072;-87
2022/10/09 09:38:29;;;;;;;3.20;0.90;;;20.90;78.30;;;;;;4198037;28;20109;-88
2022/10/09 09:40:33;;;;;;;6.05;1.15;;;20.70;82.60;;;;;;4198213;28;20127;-88
2022/10/09 09:42:35;;;;;;;3.42;1.08;;;20.40;81.80;;;;;;4181819;28;20056;-88
2022/10/09 09:44:43;;;;;;;6.43;1.20;;;20.10;82.50;;;;;;4164684;28;20128;-88
2022/10/09 09:46:46;;;;;;;2.45;1.00;;;19.70;81.20;;;;;;4199710;28;20123;-87
2022/10/09 09:48:48;;;;;;;3.38;1.00;;;19.70;84.20;;;;;;4181140;28;20060;-88
2022/10/09 09:50:52;;;;;;;5.78;0.75;;;19.40;84.30;;;;;;4217146;28;20040;-89
2022/10/09 09:52:54;;;;;;;8.80;1.40;;;19.30;84.10;;;;;;4183895;28;20053;-88
2022/10/09 09:54:57;;;;;;;4.18;1.02;;;19.30;84.20;;;;;;4202452;28;20084;-88
2022/10/09 09:57:09;;;;;;;4.38;0.98;;;19.10;83.30;;;;;;4201876;28;20067;-87
2022/10/09 09:59:40;;;;;;;4.40;1.02;;;18.80;84.20;;;;;;4184929;28;20120;-88
2022/10/09 10:01:41;;;;;;;5.95;1.00;;;18.50;78.10;;;;;;4180971;28;20064;-87
2022/10/09 10:03:49;;;;;;;3.55;1.00;;;18.40;85.50;;;;;;4184039;28;20053;-86
2022/10/09 10:05:50;;;;;;;8.02;1.45;;;18.60;83.90;;;;;;4185819;28;20052;-87
2022/10/09 10:07:52;;;;;;;4.95;0.90;;;18.50;84.40;;;;;;4185312;28;20488;-86
2022/10/09 10:10:17;;;;;;;3.35;0.60;;;18.40;84.20;;;;;;4184206;28;20598;-87
2022/10/09 10:12:18;;;;;;;2.28;0.70;;;18.60;81.10;;;;;;4183645;28;20142;-87
2022/10/09 10:14:19;;;;;;;5.88;1.05;;;18.60;83.70;;;;;;4184653;28;20049;-87
2022/10/09 10:16:30;;;;;;;3.85;0.85;;;18.60;83.50;;;;;;4185846;28;20044;-86
2022/10/09 10:18:38;;;;;;;5.47;0.73;;;18.60;81.70;;;;;;4184469;28;20049;-86
2022/10/09 10:20:51;;;;;;;5.57;0.90;;;18.50;82.80;;;;;;4183773;28;20057;-87
2022/10/09 10:22:54;;;;;;;8.13;0.90;;;18.40;80.80;;;;;;4183641;28;20053;-86
2022/10/09 10:24:58;;;;;;;5.40;1.00;;;18.20;81.90;;;;;;4186948;28;20044;-86
2022/10/09 10:27:24;;;;;;;4.75;1.05;;;18.30;82.40;;;;;;4185048;28;20049;-85
2022/10/09 10:29:39;;;;;;;6.00;0.80;;;18.30;82.20;;;;;;4185191;28;20115;-85
2022/10/09 10:31:58;;;;;;;3.33;1.02;;;18.60;82.20;;;;;;4184605;28;20057;-87
2022/10/09 10:34:03;;;;;;;5.78;0.98;;;18.70;80.50;;;;;;4185148;28;20057;-86
2022/10/09 10:36:08;;;;;;;4.60;1.17;;;18.80;81.60;;;;;;4184319;28;20049;-85
2022/10/09 10:38:16;;;;;;;4.72;0.98;;;19.00;81.60;;;;;;4183477;28;20068;-85
2022/10/09 10:40:21;;;;;;;3.05;0.85;;;18.90;80.40;;;;;;4183956;28;20084;-85
2022/10/09 10:42:39;;;;;;;8.77;1.10;;;18.90;80.40;;;;;;4185402;28;20075;-84
2022/10/09 10:44:53;;;;;;;10.27;1.37;;;18.80;80.00;;;;;;4184050;28;20425;-85
2022/10/09 10:47:03;;;;;;;2.50;0.80;;;18.30;79.10;;;;;;4185876;28;20291;-86
2022/10/09 10:49:07;;;;;;;6.90;0.90;;;18.70;78.40;;;;;;4187184;28;20041;-86
2022/10/09 10:51:26;;;;;;;4.85;1.60;;;18.80;80.00;;;;;;4192593;28;20057;-86